Time;durP1;ratioP1;P1;durP2;ratioP2;P2;SDS_P1;SDS_P2;PMS_P1;PMS_P2;Temp;Humidity;BMP_temperature;BMP_pressure;BME280_temperature;BME280_humidity;BME280_pressure;Samples;Min_cycle;Max_cycle;Signal;HPM_P1;HPM_P2
2023/12/26 00:01:54;;;;;;;0.17;0.17;;;9.20;99.90;;;;;;5002495;28;20050;-86
2023/12/26 00:04:22;;;;;;;20.52;0.55;;;9.20;99.90;;;;;;5002912;28;20107;-86
2023/12/26 00:06:48;;;;;;;0.00;0.00;;;9.20;99.90;;;;;;4984634;28;20054;-86
2023/12/26 00:09:15;;;;;;;0.00;0.00;;;9.20;99.90;;;;;;5002161;28;20122;-86
2023/12/26 00:11:45;;;;;;;0.00;0.00;;;9.20;99.90;;;;;;4984298;28;20100;-86
2023/12/26 00:14:12;;;;;;;0.45;0.20;;;9.20;99.90;;;;;;5002533;28;20519;-86
2023/12/26 00:16:41;;;;;;;0.00;0.00;;;9.20;99.90;;;;;;5020747;28;20126;-87
2023/12/26 00:19:08;;;;;;;0.00;0.00;;;9.20;99.90;;;;;;4986243;28;20057;-86
2023/12/26 00:21:34;;;;;;;0.00;0.00;;;9.20;99.90;;;;;;5002705;28;20042;-86
2023/12/26 00:24:00;;;;;;;0.00;0.00;;;9.20;99.90;;;;;;5002325;28;20650;-86
2023/12/26 00:26:25;;;;;;;0.00;0.00;;;9.30;99.90;;;;;;5002513;28;20082;-86
2023/12/26 00:28:51;;;;;;;0.25;0.20;;;9.30;99.90;;;;;;5002579;28;20153;-86
2023/12/26 00:31:18;;;;;;;0.30;0.30;;;9.30;99.90;;;;;;4984050;28;20049;-86
2023/12/26 00:33:43;;;;;;;0.00;0.00;;;9.30;99.90;;;;;;4984633;28;20038;-86
2023/12/26 00:36:13;;;;;;;0.00;0.00;;;9.30;99.90;;;;;;5001102;28;20415;-86
2023/12/26 00:38:39;;;;;;;0.00;0.00;;;9.30;99.90;;;;;;5002634;28;20053;-86
2023/12/26 00:41:05;;;;;;;0.10;0.10;;;9.40;99.90;;;;;;4987880;28;20488;-86
2023/12/26 00:43:31;;;;;;;0.52;0.52;;;9.40;99.90;;;;;;5005836;28;20050;-86
2023/12/26 00:45:58;;;;;;;0.00;0.00;;;9.40;99.90;;;;;;5007537;28;20418;-86
2023/12/26 00:48:24;;;;;;;0.00;0.00;;;9.40;99.90;;;;;;5006953;28;20056;-87
2023/12/26 00:50:49;;;;;;;0.00;0.00;;;9.40;99.90;;;;;;5005998;28;20041;-86
2023/12/26 00:53:15;;;;;;;0.00;0.00;;;9.40;99.90;;;;;;5005676;28;20127;-86
2023/12/26 00:55:41;;;;;;;0.00;0.00;;;9.40;99.90;;;;;;5005850;28;20400;-86
2023/12/26 00:58:07;;;;;;;0.00;0.00;;;9.40;99.90;;;;;;5005916;28;20111;-87
2023/12/26 01:00:32;;;;;;;0.40;0.40;;;9.40;99.90;;;;;;4987328;28;20046;-87
2023/12/26 01:02:58;;;;;;;0.00;0.00;;;9.50;99.90;;;;;;5005615;28;20045;-87
2023/12/26 01:05:24;;;;;;;0.10;0.10;;;9.50;99.90;;;;;;4987884;28;20095;-87
2023/12/26 01:07:49;;;;;;;0.38;0.25;;;9.40;99.90;;;;;;4997530;28;20053;-86
2023/12/26 01:10:15;;;;;;;0.00;0.00;;;9.40;99.90;;;;;;5012412;28;20061;-86
2023/12/26 01:12:41;;;;;;;0.45;0.35;;;9.40;99.90;;;;;;5005655;28;20100;-86
2023/12/26 01:15:07;;;;;;;0.00;0.00;;;9.50;99.90;;;;;;5005037;28;20057;-86
2023/12/26 01:17:32;;;;;;;0.00;0.00;;;9.50;99.90;;;;;;4991631;28;20179;-86
2023/12/26 01:19:58;;;;;;;0.00;0.00;;;9.50;99.90;;;;;;5008043;28;20037;-86
2023/12/26 01:22:23;;;;;;;0.00;0.00;;;9.50;99.90;;;;;;5005099;28;20042;-86
2023/12/26 01:24:52;;;;;;;0.00;0.00;;;9.50;99.90;;;;;;5005201;28;20037;-86
2023/12/26 01:27:18;;;;;;;0.20;0.20;;;9.40;99.90;;;;;;5010886;28;20132;-86
2023/12/26 01:29:44;;;;;;;0.00;0.00;;;9.40;99.90;;;;;;5011333;28;20204;-86
2023/12/26 01:32:09;;;;;;;0.00;0.00;;;9.40;99.90;;;;;;5005423;28;20052;-86
2023/12/26 01:34:35;;;;;;;0.00;0.00;;;9.40;99.90;;;;;;4987361;28;20034;-86
2023/12/26 01:37:01;;;;;;;0.00;0.00;;;9.40;99.90;;;;;;5005209;28;20794;-86
2023/12/26 01:39:28;;;;;;;0.00;0.00;;;9.30;99.90;;;;;;4987254;28;20104;-86
2023/12/26 01:41:53;;;;;;;0.00;0.00;;;9.40;99.90;;;;;;5005255;28;20050;-87
2023/12/26 01:44:20;;;;;;;0.00;0.00;;;9.30;99.90;;;;;;4987995;28;20385;-87
2023/12/26 01:46:46;;;;;;;0.00;0.00;;;9.40;99.90;;;;;;4986803;28;20061;-86
2023/12/26 01:49:13;;;;;;;0.30;0.30;;;9.40;99.90;;;;;;5005556;28;20056;-86
2023/12/26 01:51:42;;;;;;;0.00;0.00;;;9.30;99.90;;;;;;5005490;28;20179;-86
2023/12/26 01:54:08;;;;;;;0.65;0.63;;;9.30;99.90;;;;;;5004808;28;20046;-86
2023/12/26 01:56:34;;;;;;;5.70;1.27;;;9.40;99.90;;;;;;4987213;28;20177;-86
2023/12/26 01:59:02;;;;;;;0.00;0.00;;;9.40;99.90;;;;;;5005431;28;20439;-87
2023/12/26 02:01:29;;;;;;;0.35;0.28;;;9.40;99.90;;;;;;5009413;28;20069;-86
2023/12/26 02:03:57;;;;;;;17.52;0.70;;;9.40;99.90;;;;;;5004778;28;20049;-86
2023/12/26 02:06:23;;;;;;;0.10;0.10;;;9.30;99.90;;;;;;5004893;28;20405;-87
2023/12/26 02:08:49;;;;;;;0.05;0.05;;;9.30;99.90;;;;;;5022100;28;20045;-87
2023/12/26 02:11:15;;;;;;;4.95;1.35;;;9.20;99.90;;;;;;5004916;28;20432;-87
2023/12/26 02:13:41;;;;;;;0.38;0.38;;;9.20;99.90;;;;;;4986863;28;20053;-86
2023/12/26 02:16:12;;;;;;;0.00;0.00;;;9.20;99.90;;;;;;5004910;28;20385;-87
2023/12/26 02:18:38;;;;;;;0.13;0.13;;;9.20;99.90;;;;;;5020424;28;20045;-87
2023/12/26 02:21:04;;;;;;;0.00;0.00;;;9.20;99.90;;;;;;5024806;28;20053;-86
2023/12/26 02:23:31;;;;;;;0.00;0.00;;;9.20;99.90;;;;;;4994647;28;20556;-87
2023/12/26 02:25:58;;;;;;;0.10;0.10;;;9.20;99.90;;;;;;5005260;28;20062;-87
2023/12/26 02:28:24;;;;;;;0.00;0.00;;;9.10;99.90;;;;;;4989855;28;20042;-87
2023/12/26 02:30:50;;;;;;;0.00;0.00;;;9.10;99.90;;;;;;5006469;28;20140;-87
2023/12/26 02:33:16;;;;;;;0.00;0.00;;;9.10;99.90;;;;;;5004537;28;20050;-87
2023/12/26 02:35:43;;;;;;;0.00;0.00;;;9.10;99.90;;;;;;4987725;28;20407;-87
2023/12/26 02:38:09;;;;;;;0.10;0.10;;;9.10;99.90;;;;;;5006285;28;20053;-87
2023/12/26 02:40:34;;;;;;;0.00;0.00;;;9.10;99.90;;;;;;5004820;28;20130;-86
2023/12/26 02:43:00;;;;;;;0.08;0.08;;;9.10;99.90;;;;;;4987591;28;20104;-87
2023/12/26 02:45:26;;;;;;;0.10;0.10;;;9.00;99.90;;;;;;5004790;28;20053;-87
2023/12/26 02:47:51;;;;;;;0.17;0.17;;;9.00;99.90;;;;;;4986858;28;20134;-86
2023/12/26 02:50:17;;;;;;;0.00;0.00;;;8.90;99.90;;;;;;5004245;28;20050;-86
2023/12/26 02:52:43;;;;;;;0.25;0.10;;;8.90;99.90;;;;;;5003703;28;20077;-87
2023/12/26 02:55:09;;;;;;;0.00;0.00;;;8.90;88.50;;;;;;5006026;28;20049;-87
2023/12/26 02:57:34;;;;;;;0.00;0.00;;;8.90;99.90;;;;;;5004000;28;20112;-87
2023/12/26 03:00:00;;;;;;;9.23;0.75;;;8.80;99.90;;;;;;5004267;28;20096;-87
2023/12/26 03:02:26;;;;;;;0.00;0.00;;;8.70;82.40;;;;;;4985401;28;20050;-86
2023/12/26 03:04:52;;;;;;;0.90;0.65;;;8.70;18.40;;;;;;4986404;28;20085;-87
2023/12/26 03:07:17;;;;;;;2.35;0.40;;;8.60;1.00;;;;;;5003553;28;20053;-87
2023/12/26 03:09:43;;;;;;;4.30;0.65;;;8.50;1.00;;;;;;5004280;28;20045;-86
2023/12/26 03:12:08;;;;;;;19.35;1.65;;;8.50;1.00;;;;;;5004867;28;20053;-86
2023/12/26 03:14:34;;;;;;;10.82;0.28;;;8.40;1.00;;;;;;5004275;28;20057;-87
2023/12/26 03:17:00;;;;;;;0.00;0.00;;;8.30;1.00;;;;;;5002633;28;20034;-87
2023/12/26 03:19:25;;;;;;;0.00;0.00;;;8.30;99.90;;;;;;4985577;28;20049;-87
2023/12/26 03:21:51;;;;;;;0.00;0.00;;;8.30;99.90;;;;;;5002832;28;20049;-86
2023/12/26 03:24:17;;;;;;;0.30;0.30;;;8.30;99.90;;;;;;5003511;28;20132;-86
2023/12/26 03:26:42;;;;;;;0.00;0.00;;;8.40;99.90;;;;;;5003058;28;20107;-86
2023/12/26 03:29:08;;;;;;;0.00;0.00;;;8.40;99.90;;;;;;4984950;28;20049;-86
2023/12/26 03:31:39;;;;;;;0.00;0.00;;;8.30;99.90;;;;;;5003063;28;20394;-86
2023/12/26 03:34:06;;;;;;;0.00;0.00;;;8.40;99.90;;;;;;5003354;28;20049;-86
2023/12/26 03:36:32;;;;;;;0.00;0.00;;;8.30;99.90;;;;;;5002499;28;20066;-86
2023/12/26 03:38:57;;;;;;;0.00;0.00;;;8.20;93.60;;;;;;5012487;28;20431;-86
2023/12/26 03:41:23;;;;;;;0.00;0.00;;;8.20;99.60;;;;;;5002568;28;20045;-86
2023/12/26 03:43:48;;;;;;;0.15;0.15;;;8.10;1.00;;;;;;5002474;28;20050;-86
2023/12/26 03:46:14;;;;;;;1.95;1.15;;;8.00;99.90;;;;;;4984584;28;20836;-86
2023/12/26 03:48:40;;;;;;;1.75;1.35;;;7.90;99.90;;;;;;4988910;28;20042;-87
2023/12/26 03:51:05;;;;;;;1.45;1.35;;;7.80;1.00;;;;;;5002788;28;20038;-86
2023/12/26 03:53:31;;;;;;;1.77;0.55;;;7.60;36.70;;;;;;5002735;28;20115;-87
2023/12/26 03:55:57;;;;;;;2.92;0.77;;;7.60;99.90;;;;;;5002516;28;20445;-86
2023/12/26 03:58:22;;;;;;;0.00;0.00;;;7.60;99.90;;;;;;5015115;28;20100;-86
2023/12/26 04:00:48;;;;;;;0.00;0.00;;;7.60;99.90;;;;;;5002438;28;20498;-86
2023/12/26 04:03:15;;;;;;;0.10;0.10;;;7.50;99.90;;;;;;5002187;28;20488;-86
2023/12/26 04:05:40;;;;;;;0.20;0.20;;;7.40;99.90;;;;;;5002377;28;20060;-86
2023/12/26 04:08:06;;;;;;;0.35;0.30;;;7.30;99.90;;;;;;5002480;28;20050;-87
2023/12/26 04:10:31;;;;;;;0.00;0.00;;;7.30;99.90;;;;;;5019320;28;20076;-87
2023/12/26 04:12:57;;;;;;;0.00;0.00;;;7.20;1.00;;;;;;5014775;28;20614;-87
2023/12/26 04:15:24;;;;;;;0.00;0.00;;;7.20;99.90;;;;;;5006526;28;20129;-86
2023/12/26 04:17:50;;;;;;;4.63;1.00;;;7.00;99.90;;;;;;5020123;28;20103;-87
2023/12/26 04:20:15;;;;;;;0.00;0.00;;;7.00;99.90;;;;;;5012746;28;20053;-87
2023/12/26 04:22:41;;;;;;;0.00;0.00;;;7.00;1.00;;;;;;5006467;28;20399;-86
2023/12/26 04:25:07;;;;;;;0.00;0.00;;;7.00;99.90;;;;;;4998274;28;20380;-86
2023/12/26 04:27:33;;;;;;;0.10;0.10;;;6.90;99.90;;;;;;5005671;28;20042;-86
2023/12/26 04:29:58;;;;;;;10.50;1.20;;;6.90;99.90;;;;;;5006272;28;20049;-87
2023/12/26 04:32:26;;;;;;;1.13;0.63;;;6.90;99.90;;;;;;4996556;28;20125;-87
2023/12/26 04:34:52;;;;;;;2.72;1.17;;;6.90;1.00;;;;;;5026157;28;20060;-86
2023/12/26 04:37:18;;;;;;;0.45;0.45;;;6.90;1.00;;;;;;5013380;28;20404;-87
2023/12/26 04:39:43;;;;;;;1.05;0.80;;;6.90;99.90;;;;;;5005837;28;20092;-87
2023/12/26 04:42:09;;;;;;;0.00;0.00;;;6.80;1.00;;;;;;5005801;28;20038;-87
2023/12/26 04:44:35;;;;;;;0.10;0.08;;;6.80;58.40;;;;;;4988208;28;20049;-86
2023/12/26 04:47:01;;;;;;;0.20;0.20;;;6.70;99.90;;;;;;5006192;28;20119;-87
2023/12/26 04:49:26;;;;;;;0.08;0.08;;;6.70;99.90;;;;;;5005740;28;20041;-86
2023/12/26 04:51:52;;;;;;;0.32;0.32;;;6.70;99.90;;;;;;5005718;28;20100;-86
2023/12/26 04:54:17;;;;;;;7.97;1.38;;;6.70;99.90;;;;;;5005711;28;20045;-87
2023/12/26 04:56:43;;;;;;;0.00;0.00;;;6.60;99.90;;;;;;5005943;28;20041;-86
2023/12/26 04:59:09;;;;;;;0.00;0.00;;;6.60;99.90;;;;;;5005947;28;20116;-86
2023/12/26 05:01:41;;;;;;;1.35;1.27;;;6.60;99.90;;;;;;5005720;28;20042;-86
2023/12/26 05:04:09;;;;;;;0.17;0.15;;;6.60;99.90;;;;;;5008824;28;20483;-86
2023/12/26 05:06:35;;;;;;;0.17;0.17;;;6.70;99.90;;;;;;5023684;28;20049;-87
2023/12/26 05:09:02;;;;;;;0.00;0.00;;;6.60;99.90;;;;;;5005635;28;20054;-86
2023/12/26 05:11:28;;;;;;;0.00;0.00;;;6.70;99.90;;;;;;4988020;28;20463;-86
2023/12/26 05:13:53;;;;;;;0.43;0.43;;;6.60;99.90;;;;;;5018142;28;20049;-87
2023/12/26 05:16:20;;;;;;;0.00;0.00;;;6.60;1.00;;;;;;5016927;28;20081;-86
2023/12/26 05:18:45;;;;;;;0.82;0.77;;;6.70;99.90;;;;;;5025264;28;20127;-87
2023/12/26 05:21:21;;;;;;;0.00;0.00;;;6.80;99.90;;;;;;5012184;28;20042;-87
2023/12/26 05:23:47;;;;;;;0.00;0.00;;;6.80;75.50;;;;;;4987112;28;20050;-87
2023/12/26 05:26:13;;;;;;;0.10;0.10;;;6.80;99.90;;;;;;5005049;28;20045;-87
2023/12/26 05:28:39;;;;;;;0.00;0.00;;;6.80;99.90;;;;;;5005266;28;20092;-87
2023/12/26 05:31:05;;;;;;;2.47;1.00;;;6.90;99.90;;;;;;5005642;28;20129;-87
2023/12/26 05:33:31;;;;;;;0.60;0.60;;;7.00;1.00;;;;;;4987026;28;20384;-86
2023/12/26 05:35:57;;;;;;;0.00;0.00;;;7.00;1.00;;;;;;4986904;28;20085;-87
2023/12/26 05:38:25;;;;;;;0.20;0.20;;;7.20;99.90;;;;;;5005576;28;20065;-87
2023/12/26 05:40:51;;;;;;;0.30;0.25;;;7.30;99.90;;;;;;5000964;28;20045;-87
2023/12/26 05:43:17;;;;;;;0.00;0.00;;;7.40;51.70;;;;;;4988881;28;20053;-87
2023/12/26 05:45:42;;;;;;;2.17;1.17;;;7.50;1.00;;;;;;5019598;28;20119;-87
2023/12/26 05:48:08;;;;;;;0.00;0.00;;;7.50;70.60;;;;;;4986882;28;20069;-86
2023/12/26 05:50:34;;;;;;;0.00;0.00;;;7.50;99.90;;;;;;4986798;28;20094;-87
2023/12/26 05:53:01;;;;;;;0.00;0.00;;;7.60;87.40;;;;;;4987095;28;20058;-86
2023/12/26 05:55:27;;;;;;;0.80;0.30;;;7.60;1.00;;;;;;5004647;28;20065;-87
2023/12/26 05:57:53;;;;;;;0.47;0.32;;;7.60;1.00;;;;;;5004906;28;20042;-87
2023/12/26 06:00:19;;;;;;;0.55;0.55;;;7.60;1.00;;;;;;5004365;28;20428;-87
2023/12/26 06:02:44;;;;;;;0.50;0.50;;;7.70;1.00;;;;;;4986572;28;20637;-87
2023/12/26 06:05:10;;;;;;;0.00;0.00;;;7.70;1.00;;;;;;5004753;28;20049;-87
2023/12/26 06:07:36;;;;;;;0.22;0.22;;;7.80;99.90;;;;;;5004541;28;20472;-87
2023/12/26 06:10:02;;;;;;;0.00;0.00;;;7.80;99.90;;;;;;5004493;28;20099;-87
2023/12/26 06:12:28;;;;;;;0.00;0.00;;;7.80;99.90;;;;;;5004226;28;20105;-87
2023/12/26 06:14:54;;;;;;;4.47;1.65;;;7.80;1.00;;;;;;4986895;28;20100;-87
2023/12/26 06:17:21;;;;;;;2.70;0.77;;;7.70;1.00;;;;;;5008208;28;20038;-87
2023/12/26 06:19:48;;;;;;;0.00;0.00;;;7.80;99.90;;;;;;5003747;28;20054;-87
2023/12/26 06:22:13;;;;;;;0.30;0.20;;;7.70;99.90;;;;;;4988521;28;20510;-86
2023/12/26 06:24:39;;;;;;;0.22;0.20;;;7.70;99.90;;;;;;5003687;28;20046;-86
2023/12/26 06:27:05;;;;;;;1.13;1.02;;;7.60;99.90;;;;;;4986285;28;20046;-87
2023/12/26 06:29:31;;;;;;;0.00;0.00;;;7.80;1.00;;;;;;5003314;28;20048;-86
2023/12/26 06:31:57;;;;;;;0.00;0.00;;;7.80;1.00;;;;;;4986224;28;20566;-87
2023/12/26 06:34:23;;;;;;;0.10;0.08;;;7.90;99.90;;;;;;5004139;28;20116;-87
2023/12/26 06:36:49;;;;;;;0.98;0.32;;;7.80;99.90;;;;;;5002806;28;20052;-87
2023/12/26 06:39:15;;;;;;;0.35;0.35;;;7.70;99.90;;;;;;5003530;28;20420;-87
2023/12/26 06:41:42;;;;;;;0.00;0.00;;;7.60;99.90;;;;;;5005057;28;20400;-86
2023/12/26 06:44:08;;;;;;;0.47;0.40;;;7.50;1.00;;;;;;5005645;28;20050;-86
2023/12/26 06:46:40;;;;;;;0.77;0.73;;;7.50;1.00;;;;;;5003717;28;20488;-86
2023/12/26 06:49:06;;;;;;;0.00;0.00;;;7.50;99.90;;;;;;5003850;28;20580;-86
2023/12/26 06:51:31;;;;;;;0.45;0.30;;;7.60;99.90;;;;;;5003204;28;20042;-87
2023/12/26 06:53:57;;;;;;;0.55;0.55;;;7.60;99.90;;;;;;5006504;28;20128;-86
2023/12/26 06:56:23;;;;;;;0.93;0.85;;;7.60;99.90;;;;;;5004013;28;20049;-86
2023/12/26 06:58:57;;;;;;;4.65;1.25;;;7.80;99.90;;;;;;5121069;27;20390;-87
2023/12/26 07:01:22;;;;;;;0.00;0.00;;;7.90;99.90;;;;;;5120260;28;20542;-87
2023/12/26 07:03:48;;;;;;;0.47;0.20;;;7.80;99.90;;;;;;5112139;28;20035;-87
2023/12/26 07:06:14;;;;;;;0.00;0.00;;;7.90;99.90;;;;;;5101212;28;20043;-87
2023/12/26 07:08:39;;;;;;;2.17;1.35;;;7.80;99.90;;;;;;5120103;28;20115;-87
2023/12/26 07:11:05;;;;;;;2.05;1.25;;;7.90;99.90;;;;;;5119510;28;20130;-88
2023/12/26 07:13:31;;;;;;;0.93;0.70;;;7.90;99.90;;;;;;5101860;28;20039;-87
2023/12/26 07:15:56;;;;;;;0.30;0.30;;;8.00;99.90;;;;;;5119656;28;20507;-87
2023/12/26 07:18:22;;;;;;;0.40;0.38;;;7.90;99.90;;;;;;5120055;28;20122;-87
2023/12/26 07:20:48;;;;;;;0.68;0.55;;;8.00;99.90;;;;;;5101388;28;20043;-87
2023/12/26 07:23:13;;;;;;;0.00;0.00;;;8.00;99.90;;;;;;5120137;28;20035;-87
2023/12/26 07:25:41;;;;;;;0.00;0.00;;;8.00;99.90;;;;;;5119987;28;20043;-87
2023/12/26 07:28:06;;;;;;;7.07;1.95;;;8.10;99.90;;;;;;5120190;28;20403;-87
2023/12/26 07:30:32;;;;;;;0.00;0.00;;;8.20;18.40;;;;;;5101162;28;20037;-87
2023/12/26 07:32:58;;;;;;;4.75;0.52;;;8.20;51.70;;;;;;5119490;28;20523;-87
2023/12/26 07:35:25;;;;;;;0.00;0.00;;;8.20;42.30;;;;;;5100646;28;20081;-87
2023/12/26 07:37:51;;;;;;;1.67;1.02;;;8.20;1.00;;;;;;5119421;28;20047;-87
2023/12/26 07:40:16;;;;;;;0.25;0.22;;;8.20;23.60;;;;;;5120388;28;20057;-87
2023/12/26 07:42:42;;;;;;;0.75;0.43;;;8.30;13.90;;;;;;5102046;28;20470;-87
2023/12/26 07:45:08;;;;;;;0.17;0.17;;;8.30;1.00;;;;;;5120665;28;20043;-87
2023/12/26 07:47:34;;;;;;;0.38;0.38;;;8.30;1.00;;;;;;5120763;28;20083;-87
2023/12/26 07:50:00;;;;;;;0.00;0.00;;;8.40;1.00;;;;;;5120660;28;20070;-87
2023/12/26 07:52:26;;;;;;;4.50;1.35;;;8.50;1.00;;;;;;5100902;28;20039;-87
2023/12/26 07:54:52;;;;;;;0.10;0.10;;;8.40;1.00;;;;;;5119662;28;20035;-87
2023/12/26 07:57:17;;;;;;;0.00;0.00;;;8.50;1.00;;;;;;5100625;28;20067;-87
2023/12/26 07:59:43;;;;;;;1.90;0.82;;;8.50;1.00;;;;;;5100902;28;20496;-87
2023/12/26 08:02:09;;;;;;;0.00;0.00;;;8.40;1.00;;;;;;5119247;28;20043;-87
2023/12/26 08:04:34;;;;;;;0.35;0.35;;;8.40;1.00;;;;;;5119589;28;20374;-87
2023/12/26 08:07:00;;;;;;;0.00;0.00;;;8.30;28.70;;;;;;5119368;28;20082;-87
2023/12/26 08:09:26;;;;;;;0.00;0.00;;;8.40;1.00;;;;;;5109380;28;20138;-87
2023/12/26 08:11:51;;;;;;;0.47;0.47;;;8.40;1.00;;;;;;5104230;28;20549;-87
2023/12/26 08:14:17;;;;;;;1.67;1.27;;;8.50;1.00;;;;;;5104397;28;20127;-87
2023/12/26 08:16:45;;;;;;;2.35;1.00;;;8.40;1.00;;;;;;5104166;28;20089;-87
2023/12/26 08:19:11;;;;;;;0.00;0.00;;;8.50;1.00;;;;;;5103676;28;20549;-87
2023/12/26 08:21:37;;;;;;;6.30;0.73;;;8.50;1.00;;;;;;5104075;28;20043;-87
2023/12/26 08:24:04;;;;;;;2.40;0.68;;;8.50;99.90;;;;;;5103875;28;20576;-87
2023/12/26 08:26:31;;;;;;;5.68;1.35;;;8.50;99.90;;;;;;5103987;28;20040;-87
2023/12/26 08:28:57;;;;;;;14.05;0.80;;;8.40;99.90;;;;;;5085397;28;20075;-87
2023/12/26 08:31:23;;;;;;;0.55;0.38;;;8.50;99.90;;;;;;5085333;28;20515;-87
2023/12/26 08:33:49;;;;;;;0.10;0.10;;;8.40;99.90;;;;;;5103308;28;20283;-87
2023/12/26 08:36:14;;;;;;;0.05;0.03;;;8.50;99.90;;;;;;5094755;28;20044;-87
2023/12/26 08:38:41;;;;;;;3.47;1.60;;;8.50;99.90;;;;;;5103410;28;20041;-87
2023/12/26 08:41:09;;;;;;;0.05;0.05;;;8.50;99.90;;;;;;5104094;28;20052;-87
2023/12/26 08:43:35;;;;;;;0.00;0.00;;;8.60;99.90;;;;;;5097132;28;20051;-87
2023/12/26 08:46:01;;;;;;;0.10;0.10;;;8.50;99.90;;;;;;5103391;28;20417;-87
2023/12/26 08:48:27;;;;;;;0.00;0.00;;;8.60;99.90;;;;;;5102198;28;20039;-87
2023/12/26 08:50:52;;;;;;;0.00;0.00;;;8.60;99.90;;;;;;5103500;28;20130;-87
2023/12/26 08:53:19;;;;;;;0.22;0.22;;;8.70;99.90;;;;;;5084219;28;20039;-87
2023/12/26 08:55:46;;;;;;;0.32;0.30;;;8.70;99.90;;;;;;5101907;28;20066;-87
2023/12/26 08:58:13;;;;;;;14.23;1.65;;;8.70;99.90;;;;;;5082540;28;20562;-88
2023/12/26 09:00:40;;;;;;;0.98;0.93;;;8.70;99.90;;;;;;5100848;28;20530;-87
2023/12/26 09:03:07;;;;;;;1.35;1.25;;;8.70;99.90;;;;;;5101369;28;20048;-87
2023/12/26 09:05:36;;;;;;;5.82;0.90;;;8.80;99.90;;;;;;5082983;28;20056;-87
2023/12/26 09:08:02;;;;;;;1.02;0.75;;;8.70;99.90;;;;;;5101126;28;20043;-87
2023/12/26 09:10:27;;;;;;;0.68;0.38;;;8.80;99.90;;;;;;5101616;28;20392;-87
2023/12/26 09:12:53;;;;;;;0.00;0.00;;;8.80;99.90;;;;;;5102239;28;20044;-87
2023/12/26 09:15:19;;;;;;;2.35;1.48;;;8.80;99.90;;;;;;5083953;28;20043;-87
2023/12/26 09:17:44;;;;;;;1.00;0.38;;;8.80;99.90;;;;;;5103135;28;20126;-87
2023/12/26 09:20:10;;;;;;;0.10;0.10;;;8.80;99.90;;;;;;5101367;28;20042;-87
2023/12/26 09:22:36;;;;;;;3.65;0.75;;;8.80;99.90;;;;;;5102570;28;20400;-87
2023/12/26 09:25:02;;;;;;;0.00;0.00;;;8.80;99.90;;;;;;5102682;28;20077;-87
2023/12/26 09:27:28;;;;;;;0.00;0.00;;;8.80;99.90;;;;;;5102210;28;20894;-87
2023/12/26 09:29:54;;;;;;;0.00;0.00;;;8.90;99.90;;;;;;5101977;28;20578;-87
2023/12/26 09:32:19;;;;;;;0.00;0.00;;;8.90;99.90;;;;;;5103459;28;20051;-87
2023/12/26 09:34:45;;;;;;;0.00;0.00;;;8.90;99.90;;;;;;5107868;28;20363;-87
2023/12/26 09:37:11;;;;;;;1.13;0.60;;;8.90;99.90;;;;;;5072761;28;20059;-87
2023/12/26 09:39:37;;;;;;;0.00;0.00;;;8.90;99.90;;;;;;5108376;28;20050;-87
2023/12/26 09:42:04;;;;;;;0.00;0.00;;;9.00;99.90;;;;;;5108040;28;20075;-87
2023/12/26 09:44:30;;;;;;;4.13;1.85;;;9.00;99.90;;;;;;5107674;28;20427;-87
2023/12/26 09:46:58;;;;;;;2.30;0.25;;;8.90;99.90;;;;;;5102617;28;20051;-87
2023/12/26 09:49:24;;;;;;;0.30;0.30;;;8.90;99.90;;;;;;5101928;28;20048;-87
2023/12/26 09:51:54;;;;;;;0.20;0.20;;;8.90;99.90;;;;;;5101492;28;20059;-87
2023/12/26 09:54:23;;;;;;;1.08;1.02;;;9.00;99.90;;;;;;5100948;28;20831;-87
2023/12/26 09:56:49;;;;;;;7.22;0.65;;;9.00;99.90;;;;;;5100919;28;20086;-87
2023/12/26 09:59:16;;;;;;;0.20;0.13;;;9.00;99.90;;;;;;5101054;28;20452;-86
2023/12/26 10:01:44;;;;;;;1.33;1.23;;;8.90;99.90;;;;;;5102094;28;20414;-87
2023/12/26 10:04:10;;;;;;;0.47;0.47;;;9.00;99.90;;;;;;5084366;28;20169;-86
2023/12/26 10:06:36;;;;;;;14.00;0.85;;;9.00;99.90;;;;;;5101960;28;20122;-84
2023/12/26 10:09:01;;;;;;;5.60;0.85;;;9.10;99.90;;;;;;5102050;28;20082;-87
2023/12/26 10:11:28;;;;;;;0.03;0.03;;;9.20;95.80;;;;;;5101707;28;20036;-87
2023/12/26 10:13:55;;;;;;;0.00;0.00;;;9.30;83.20;;;;;;5101830;28;20122;-87
2023/12/26 10:16:21;;;;;;;1.17;0.75;;;9.40;79.00;;;;;;5101633;28;20051;-87
2023/12/26 10:18:48;;;;;;;0.05;0.05;;;9.40;71.90;;;;;;5101771;28;20088;-87
2023/12/26 10:21:13;;;;;;;0.75;0.57;;;9.40;32.80;;;;;;5101905;28;20047;-88
2023/12/26 10:23:39;;;;;;;0.00;0.00;;;9.50;16.40;;;;;;5103005;28;20626;-88
2023/12/26 10:26:05;;;;;;;3.13;1.23;;;9.40;5.60;;;;;;5101480;28;20047;-86
2023/12/26 10:28:38;;;;;;;0.10;0.05;;;9.30;12.50;;;;;;5101377;28;20351;-87
2023/12/26 10:31:15;;;;;;;0.13;0.05;;;9.20;15.50;;;;;;5101278;28;20472;-87
2023/12/26 10:33:41;;;;;;;0.10;0.10;;;9.10;1.00;;;;;;5101026;28;20051;-86
2023/12/26 10:36:10;;;;;;;0.32;0.32;;;9.20;11.10;;;;;;5100271;28;20129;-86
2023/12/26 10:38:36;;;;;;;0.00;0.00;;;9.30;28.70;;;;;;5100674;28;20048;-87
2023/12/26 10:41:08;;;;;;;2.63;0.70;;;9.40;19.50;;;;;;5101289;28;20074;-87
2023/12/26 10:43:37;;;;;;;1.17;0.38;;;9.60;12.20;;;;;;5088082;28;20059;-87
2023/12/26 10:46:06;;;;;;;0.00;0.00;;;9.50;1.00;;;;;;5081196;28;20047;-86
2023/12/26 10:48:34;;;;;;;0.00;0.00;;;9.40;1.50;;;;;;5100424;28;20043;-87
2023/12/26 10:51:01;;;;;;;0.00;0.00;;;9.40;11.70;;;;;;5100794;28;20036;-87
2023/12/26 10:53:48;;;;;;;0.77;0.43;;;9.40;1.00;;;;;;5081849;28;20047;-86
2023/12/26 10:56:14;;;;;;;0.68;0.47;;;9.20;1.00;;;;;;5082687;28;20066;-87
2023/12/26 10:58:40;;;;;;;1.10;0.30;;;9.30;1.00;;;;;;5101032;28;20143;-87
2023/12/26 13:53:23;;;;;;;0.00;0.00;;;8.80;1.00;;;;;;5095423;28;20056;-86
2023/12/26 13:56:26;;;;;;;0.30;0.28;;;8.80;1.00;;;;;;5098319;28;20077;-86
2023/12/26 13:59:29;;;;;;;0.00;0.00;;;8.60;7.90;;;;;;5094706;28;20057;-86
2023/12/26 14:02:33;;;;;;;2.60;1.20;;;8.50;44.70;;;;;;5076840;28;20051;-86
2023/12/26 14:05:37;;;;;;;0.00;0.00;;;8.30;68.20;;;;;;5076619;28;20058;-87
2023/12/26 14:08:40;;;;;;;0.00;0.00;;;8.30;54.50;;;;;;5095417;28;20134;-86
2023/12/26 14:11:43;;;;;;;0.00;0.00;;;8.20;68.90;;;;;;5094993;28;20051;-86
2023/12/26 14:14:46;;;;;;;0.00;0.00;;;8.20;91.80;;;;;;5076956;28;20120;-86
2023/12/26 14:17:49;;;;;;;0.35;0.35;;;8.20;81.20;;;;;;5094650;28;20058;-86
2023/12/26 14:20:52;;;;;;;0.30;0.15;;;8.00;90.30;;;;;;5094681;28;20044;-86
2023/12/26 14:23:55;;;;;;;0.00;0.00;;;7.90;94.90;;;;;;5096457;28;20055;-86
2023/12/26 14:27:02;;;;;;;0.00;0.00;;;7.70;99.90;;;;;;5076719;28;20059;-86
2023/12/26 14:30:05;;;;;;;0.00;0.00;;;7.70;99.90;;;;;;5081306;28;20074;-86
2023/12/26 14:33:09;;;;;;;0.00;0.00;;;7.60;68.60;;;;;;5095110;28;20126;-86
2023/12/26 14:36:12;;;;;;;0.90;0.65;;;7.50;91.40;;;;;;5095045;28;20428;-86
2023/12/26 14:39:15;;;;;;;0.60;0.60;;;7.60;99.90;;;;;;5098036;28;20047;-86
2023/12/26 14:42:18;;;;;;;0.52;0.52;;;7.60;99.90;;;;;;5080747;28;20345;-86
2023/12/26 14:45:22;;;;;;;0.20;0.20;;;7.40;99.90;;;;;;5078822;28;20130;-86
2023/12/26 14:48:25;;;;;;;1.98;1.10;;;7.30;99.90;;;;;;5097808;28;20420;-86
2023/12/26 14:51:28;;;;;;;0.00;0.00;;;7.10;99.90;;;;;;5094806;28;20051;-86
2023/12/26 14:54:31;;;;;;;0.00;0.00;;;6.90;99.90;;;;;;5096352;28;20440;-86
2023/12/26 14:57:34;;;;;;;0.25;0.20;;;6.70;99.90;;;;;;5077741;28;20062;-86
2023/12/26 15:00:40;;;;;;;5.05;1.38;;;6.60;1.00;;;;;;5080122;28;20504;-86
2023/12/26 15:03:06;;;;;;;0.00;0.00;;;6.40;1.00;;;;;;5098890;28;20530;-86
2023/12/26 15:05:34;;;;;;;0.57;0.47;;;6.40;99.90;;;;;;5080532;28;20056;-86
2023/12/26 15:08:00;;;;;;;0.00;0.00;;;6.40;1.00;;;;;;5099432;28;20564;-86
2023/12/26 15:10:26;;;;;;;0.00;0.00;;;6.40;1.00;;;;;;5099006;28;20291;-86
2023/12/26 15:12:52;;;;;;;0.00;0.00;;;6.50;99.90;;;;;;5081627;28;20048;-86
2023/12/26 15:15:17;;;;;;;0.05;0.05;;;6.60;99.90;;;;;;5099845;28;20473;-86
2023/12/26 15:17:43;;;;;;;0.00;0.00;;;6.60;99.90;;;;;;5099669;28;20046;-86
2023/12/26 15:20:10;;;;;;;0.98;0.93;;;6.70;99.90;;;;;;5099408;28;20039;-86
2023/12/26 15:22:35;;;;;;;0.00;0.00;;;6.50;99.90;;;;;;5103780;28;20548;-86
2023/12/26 15:25:01;;;;;;;1.40;0.95;;;6.60;99.90;;;;;;5085270;28;20050;-87
2023/12/26 15:27:27;;;;;;;0.00;0.00;;;6.60;99.90;;;;;;5103813;28;20054;-86
2023/12/26 15:29:52;;;;;;;0.00;0.00;;;6.40;99.90;;;;;;5103443;28;20104;-87
2023/12/26 15:32:18;;;;;;;0.00;0.00;;;6.20;99.90;;;;;;5085254;28;20047;-86
2023/12/26 15:34:44;;;;;;;0.00;0.00;;;6.20;1.00;;;;;;5103273;28;20056;-87
2023/12/26 15:37:10;;;;;;;0.68;0.68;;;6.10;99.90;;;;;;5103318;28;20043;-86
2023/12/26 15:39:36;;;;;;;0.63;0.63;;;6.10;1.00;;;;;;5103673;28;20454;-86
2023/12/26 15:42:02;;;;;;;1.38;0.90;;;6.10;1.00;;;;;;5095738;28;20048;-86
2023/12/26 15:44:28;;;;;;;0.00;0.00;;;6.10;1.00;;;;;;5084907;28;20131;-86
2023/12/26 15:46:54;;;;;;;0.00;0.00;;;6.10;1.00;;;;;;5103438;28;20142;-86
2023/12/26 15:49:19;;;;;;;0.10;0.10;;;6.10;99.90;;;;;;5103500;28;20047;-86
2023/12/26 15:51:45;;;;;;;1.38;0.52;;;6.00;99.90;;;;;;5103506;28;20069;-86
2023/12/26 15:54:11;;;;;;;0.00;0.00;;;6.10;99.90;;;;;;5084953;28;20116;-86
2023/12/26 15:56:36;;;;;;;0.05;0.05;;;5.80;99.90;;;;;;5085622;28;20429;-86
2023/12/26 15:59:04;;;;;;;0.20;0.10;;;5.70;99.90;;;;;;5103819;28;20458;-86